Johnny James — WYT8450 — position and weather

sailwx.info

Track history (hours):
 
Tides and Currents Weather Stations Pressure Air Temp Water Temp Dewpoint Dewpoint Depression Visibility Wind Speed Wind Dir Waves Ship Positions

Johnny James

Owner: CALLAIS & SONS INC, CUT OFF, LA. More information available from US FCC via Universal Licensing System and Coast Guard Vessel Documentation Center.

Last reported at 2016-Aug-22 10:30 UTC. Time now 2016-Aug-25 14:59 UTC.
Position N 29°47' W 095°05'.

Length 20 m.

Type: Towing. MMSI: 367005220.

Date/timePositionNaut miles runAvg speedWind from/ knotsBaromVisibWave heightAir tempDewpointWater temp
2016-Aug-22 10:30N 29°47' W 095°05'8 0.4
2016-Aug-21 11:28N 29°44' W 095°14'4 4.0
2016-Aug-21 10:33N 29°45' W 095°10'3 2.3
2016-Aug-21 09:27N 29°44' W 095°07'4 4.0
2016-Aug-21 08:32N 29°47' W 095°04'1 0.5
2016-Aug-21 07:30N 29°47' W 095°05'2 0.1
2016-Aug-20 17:33N 29°46' W 095°06'0 0.0
2016-Aug-20 16:29N 29°46' W 095°06'0 0.0
2016-Aug-20 15:29N 29°46' W 095°06'0 0.1
2016-Aug-20 14:32N 29°45' W 095°06'0 0.1
2016-Aug-20 13:32N 29°45' W 095°06'1 0.1
2016-Aug-19 18:13N 29°46' W 095°07'1 1.2
2016-Aug-19 17:20N 29°45' W 095°06'0 0.0
2016-Aug-19 08:28N 29°46' W 095°06'0 0.0
2016-Aug-19 06:14N 29°46' W 095°06'0 0.0
2016-Aug-19 05:31N 29°46' W 095°06'0 0.0
2016-Aug-19 04:32N 29°46' W 095°06'0 0.0
2016-Aug-19 03:32N 29°46' W 095°06'0 0.0
2016-Aug-19 02:30N 29°46' W 095°06'0 0.1
2016-Aug-19 01:23N 29°45' W 095°06'0 0.0
2016-Aug-19 00:13N 29°45' W 095°06'0 0.0
2016-Aug-18 18:31N 29°45' W 095°06'0 0.0
2016-Aug-18 12:09N 29°45' W 095°06'0 0.0
2016-Aug-18 08:21N 29°45' W 095°06'0 0.0
2016-Aug-18 06:33N 29°45' W 095°06'0 0.0
2016-Aug-18 05:29N 29°45' W 095°06'0 0.1
2016-Aug-18 03:30N 29°46' W 095°06'3 2.7
2016-Aug-18 02:33N 29°44' W 095°03'3 2.8
2016-Aug-18 01:33N 29°42' W 095°01'3 2.8
2016-Aug-18 00:33N 29°40' W 094°59'3 3.3
2016-Aug-17 23:34N 29°37' W 094°58'3 3.3
2016-Aug-17 22:34N 29°37' W 095°02'0 0.0
2016-Aug-17 21:34N 29°37' W 095°02'0 0.0
2016-Aug-17 20:33N 29°37' W 095°02'0 0.0
2016-Aug-17 19:33N 29°37' W 095°02'0 0.0
2016-Aug-17 18:33N 29°37' W 095°02'0 0.0
2016-Aug-17 17:32N 29°37' W 095°02'0 0.0
2016-Aug-17 16:31N 29°37' W 095°02'0 0.0
2016-Aug-17 15:33N 29°37' W 095°02'0 0.0
2016-Aug-17 14:33N 29°37' W 095°02'0 0.0
2016-Aug-17 13:33N 29°37' W 095°02'0 0.0
2016-Aug-17 12:34N 29°37' W 095°02'0 0.0
2016-Aug-17 11:34N 29°37' W 095°02'0 0.0
2016-Aug-17 10:33N 29°37' W 095°02'0 0.0
2016-Aug-17 09:33N 29°37' W 095°02'0 0.2
2016-Aug-17 08:33N 29°37' W 095°01'1 1.3
2016-Aug-17 07:32N 29°37' W 094°60'3 3.5
2016-Aug-17 06:33N 29°40' W 094°59'6 5.9
2016-Aug-17 05:33N 29°44' W 095°03'2 0.5
2016-Aug-17 00:28N 29°45' W 095°06'0 0.4
2016-Aug-16 23:31N 29°46' W 095°05'0 0.2
2016-Aug-16 22:26N 29°46' W 095°05'1 0.1
2016-Aug-16 14:33N 29°47' W 095°05'0 0.0
2016-Aug-16 13:33N 29°47' W 095°05'0 0.0
2016-Aug-16 12:33N 29°47' W 095°05'0 0.0
2016-Aug-16 11:33N 29°47' W 095°05'0 0.0
2016-Aug-16 10:33N 29°47' W 095°05'0 0.0
2016-Aug-16 09:33N 29°47' W 095°05'0 0.0
2016-Aug-16 01:33N 29°47' W 095°05'0 0.0
2016-Aug-16 00:34N 29°47' W 095°05'0 0.1
2016-Aug-15 23:28N 29°46' W 095°05'2 2.0
2016-Aug-15 22:33N 29°45' W 095°06'0 0.0
2016-Aug-15 21:32N 29°45' W 095°06'0 0.0
2016-Aug-15 20:30N 29°45' W 095°06'0 0.0
2016-Aug-15 19:33N 29°45' W 095°06'0 0.0
2016-Aug-15 18:33N 29°45' W 095°06'0 0.0
2016-Aug-15 17:09N 29°45' W 095°06'0 0.0
2016-Aug-15 16:22N 29°45' W 095°06'0 0.0
2016-Aug-15 15:33N 29°45' W 095°06'0 0.0
2016-Aug-15 14:33N 29°45' W 095°06'0 0.0
2016-Aug-15 13:12N 29°45' W 095°06'0 0.0
2016-Aug-15 12:32N 29°45' W 095°06'0 0.0
2016-Aug-15 11:17N 29°45' W 095°06'0 0.0
2016-Aug-15 10:33N 29°45' W 095°06'0 0.0
2016-Aug-15 09:32N 29°45' W 095°06'0 0.0
2016-Aug-15 08:33N 29°45' W 095°06'0 0.0
2016-Aug-15 07:32N 29°45' W 095°06'0 0.1
2016-Aug-15 02:21N 29°45' W 095°06'1 1.2
2016-Aug-15 01:31N 29°46' W 095°05'4 4.4
2016-Aug-15 00:33N 29°43' W 095°01'4 4.0
2016-Aug-14 23:34N 29°40' W 094°58'6 5.6
2016-Aug-14 22:33N 29°35' W 094°56'5 5.5
2016-Aug-14 21:33N 29°30' W 094°52'  
Track history (hours):
 
Tides and Currents Weather Stations Pressure Air Temp Water Temp Dewpoint Dewpoint Depression Visibility Wind Speed Wind Dir Waves Ship Positions

Johnny James

Owner: CALLAIS & SONS INC, CUT OFF, LA. More information available from US FCC via Universal Licensing System and Coast Guard Vessel Documentation Center.

Last reported at 2016-Aug-22 10:30 UTC. Time now 2016-Aug-25 14:59 UTC.
Position N 29°47' W 095°05'.

Length 20 m.

Type: Towing. MMSI: 367005220.

Date/timePositionNaut miles runAvg speedWind from/ knotsBaromVisibWave heightAir tempDewpointWater temp
2016-Aug-22 10:30N 29°47' W 095°05'8 0.4
2016-Aug-21 11:28N 29°44' W 095°14'4 4.0
2016-Aug-21 10:33N 29°45' W 095°10'3 2.3
2016-Aug-21 09:27N 29°44' W 095°07'4 4.0
2016-Aug-21 08:32N 29°47' W 095°04'1 0.5
2016-Aug-21 07:30N 29°47' W 095°05'2 0.1
2016-Aug-20 17:33N 29°46' W 095°06'0 0.0
2016-Aug-20 16:29N 29°46' W 095°06'0 0.0
2016-Aug-20 15:29N 29°46' W 095°06'0 0.1
2016-Aug-20 14:32N 29°45' W 095°06'0 0.1
2016-Aug-20 13:32N 29°45' W 095°06'1 0.1
2016-Aug-19 18:13N 29°46' W 095°07'1 1.2
2016-Aug-19 17:20N 29°45' W 095°06'0 0.0
2016-Aug-19 08:28N 29°46' W 095°06'0 0.0
2016-Aug-19 06:14N 29°46' W 095°06'0 0.0
2016-Aug-19 05:31N 29°46' W 095°06'0 0.0
2016-Aug-19 04:32N 29°46' W 095°06'0 0.0
2016-Aug-19 03:32N 29°46' W 095°06'0 0.0
2016-Aug-19 02:30N 29°46' W 095°06'0 0.1
2016-Aug-19 01:23N 29°45' W 095°06'0 0.0
2016-Aug-19 00:13N 29°45' W 095°06'0 0.0
2016-Aug-18 18:31N 29°45' W 095°06'0 0.0
2016-Aug-18 12:09N 29°45' W 095°06'0 0.0
2016-Aug-18 08:21N 29°45' W 095°06'0 0.0
2016-Aug-18 06:33N 29°45' W 095°06'0 0.0
2016-Aug-18 05:29N 29°45' W 095°06'0 0.1
2016-Aug-18 03:30N 29°46' W 095°06'3 2.7
2016-Aug-18 02:33N 29°44' W 095°03'3 2.8
2016-Aug-18 01:33N 29°42' W 095°01'3 2.8
2016-Aug-18 00:33N 29°40' W 094°59'3 3.3
2016-Aug-17 23:34N 29°37' W 094°58'3 3.3
2016-Aug-17 22:34N 29°37' W 095°02'0 0.0
2016-Aug-17 21:34N 29°37' W 095°02'0 0.0
2016-Aug-17 20:33N 29°37' W 095°02'0 0.0
2016-Aug-17 19:33N 29°37' W 095°02'0 0.0
2016-Aug-17 18:33N 29°37' W 095°02'0 0.0
2016-Aug-17 17:32N 29°37' W 095°02'0 0.0
2016-Aug-17 16:31N 29°37' W 095°02'0 0.0
2016-Aug-17 15:33N 29°37' W 095°02'0 0.0
2016-Aug-17 14:33N 29°37' W 095°02'0 0.0
2016-Aug-17 13:33N 29°37' W 095°02'0 0.0
2016-Aug-17 12:34N 29°37' W 095°02'0 0.0
2016-Aug-17 11:34N 29°37' W 095°02'0 0.0
2016-Aug-17 10:33N 29°37' W 095°02'0 0.0
2016-Aug-17 09:33N 29°37' W 095°02'0 0.2
2016-Aug-17 08:33N 29°37' W 095°01'1 1.3
2016-Aug-17 07:32N 29°37' W 094°60'3 3.5
2016-Aug-17 06:33N 29°40' W 094°59'6 5.9
2016-Aug-17 05:33N 29°44' W 095°03'2 0.5
2016-Aug-17 00:28N 29°45' W 095°06'0 0.4
2016-Aug-16 23:31N 29°46' W 095°05'0 0.2
2016-Aug-16 22:26N 29°46' W 095°05'1 0.1
2016-Aug-16 14:33N 29°47' W 095°05'0 0.0
2016-Aug-16 13:33N 29°47' W 095°05'0 0.0
2016-Aug-16 12:33N 29°47' W 095°05'0 0.0
2016-Aug-16 11:33N 29°47' W 095°05'0 0.0
2016-Aug-16 10:33N 29°47' W 095°05'0 0.0
2016-Aug-16 09:33N 29°47' W 095°05'0 0.0
2016-Aug-16 01:33N 29°47' W 095°05'0 0.0
2016-Aug-16 00:34N 29°47' W 095°05'0 0.1
2016-Aug-15 23:28N 29°46' W 095°05'2 2.0
2016-Aug-15 22:33N 29°45' W 095°06'0 0.0
2016-Aug-15 21:32N 29°45' W 095°06'0 0.0
2016-Aug-15 20:30N 29°45' W 095°06'0 0.0
2016-Aug-15 19:33N 29°45' W 095°06'0 0.0
2016-Aug-15 18:33N 29°45' W 095°06'0 0.0
2016-Aug-15 17:09N 29°45' W 095°06'0 0.0
2016-Aug-15 16:22N 29°45' W 095°06'0 0.0
2016-Aug-15 15:33N 29°45' W 095°06'0 0.0
2016-Aug-15 14:33N 29°45' W 095°06'0 0.0
2016-Aug-15 13:12N 29°45' W 095°06'0 0.0
2016-Aug-15 12:32N 29°45' W 095°06'0 0.0
2016-Aug-15 11:17N 29°45' W 095°06'0 0.0
2016-Aug-15 10:33N 29°45' W 095°06'0 0.0
2016-Aug-15 09:32N 29°45' W 095°06'0 0.0
2016-Aug-15 08:33N 29°45' W 095°06'0 0.0
2016-Aug-15 07:32N 29°45' W 095°06'0 0.1
2016-Aug-15 02:21N 29°45' W 095°06'1 1.2
2016-Aug-15 01:31N 29°46' W 095°05'4 4.4
2016-Aug-15 00:33N 29°43' W 095°01'4 4.0
2016-Aug-14 23:34N 29°40' W 094°58'6 5.6
2016-Aug-14 22:33N 29°35' W 094°56'5 5.5
2016-Aug-14 21:33N 29°30' W 094°52'  

Dump ship's entire track history